sensor_id;sensor_type;location;lat;lon;timestamp;pressure;altitude;pressure_sealevel;temperature;humidity
77161;BME280;66135;0.000;0.000;2023-09-18T21:35:41;100544.72;;;22.59;75.68
77161;BME280;66135;0.000;0.000;2023-09-18T21:38:07;100542.19;;;22.58;75.57
77161;BME280;66135;0.000;0.000;2023-09-18T21:40:32;100554.16;;;22.57;75.58
77161;BME280;66135;0.000;0.000;2023-09-18T21:42:58;100553.31;;;22.56;75.47
77161;BME280;66135;0.000;0.000;2023-09-18T21:45:24;100550.56;;;22.56;75.30
77161;BME280;66135;0.000;0.000;2023-09-18T21:47:50;100558.16;;;22.54;75.36
77161;BME280;66135;0.000;0.000;2023-09-18T21:50:17;100562.75;;;22.54;75.61
77161;BME280;66135;0.000;0.000;2023-09-18T21:52:44;100562.75;;;22.54;75.25
77161;BME280;66135;0.000;0.000;2023-09-18T21:55:09;100570.94;;;22.54;75.33
77161;BME280;66135;0.000;0.000;2023-09-18T21:57:34;100568.19;;;22.54;75.18
77161;BME280;66135;0.000;0.000;2023-09-18T22:00:00;100571.16;;;22.52;75.51
77161;BME280;66135;0.000;0.000;2023-09-18T22:02:26;100574.69;;;22.53;74.94
77161;BME280;66135;0.000;0.000;2023-09-18T22:04:52;100576.59;;;22.52;75.27
77161;BME280;66135;0.000;0.000;2023-09-18T22:07:19;100591.91;;;22.53;75.19
77161;BME280;66135;0.000;0.000;2023-09-18T22:09:44;100588.78;;;22.50;75.25
77161;BME280;66135;0.000;0.000;2023-09-18T22:12:17;100596.97;;;22.50;75.16
77161;BME280;66135;0.000;0.000;2023-09-18T22:14:44;100593.19;;;22.51;75.23
77161;BME280;66135;0.000;0.000;2023-09-18T22:17:11;100598.84;;;22.49;74.97
77161;BME280;66135;0.000;0.000;2023-09-18T22:19:36;100601.78;;;22.48;75.29
77161;BME280;66135;0.000;0.000;2023-09-18T22:22:01;100596.31;;;22.48;75.17
77161;BME280;66135;0.000;0.000;2023-09-18T22:24:27;100605.56;;;22.47;75.30
77161;BME280;66135;0.000;0.000;2023-09-18T22:26:52;100601.78;;;22.48;75.24
77161;BME280;66135;0.000;0.000;2023-09-18T22:29:18;100604.72;;;22.46;75.20
77161;BME280;66135;0.000;0.000;2023-09-18T22:31:43;100607.66;;;22.45;75.29
77161;BME280;66135;0.000;0.000;2023-09-18T22:34:10;100614.19;;;22.44;74.94
77161;BME280;66135;0.000;0.000;2023-09-18T22:36:36;100622.38;;;22.44;75.34
77161;BME280;66135;0.000;0.000;2023-09-18T22:55:48;100639.38;;;22.39;74.89
77161;BME280;66135;0.000;0.000;2023-09-18T22:58:15;100640.44;;;22.38;75.11
77161;BME280;66135;0.000;0.000;2023-09-18T23:00:41;100638.72;;;22.37;75.17
77161;BME280;66135;0.000;0.000;2023-09-18T23:03:07;100636.00;;;22.37;74.82
77161;BME280;66135;0.000;0.000;2023-09-18T23:05:36;100635.19;;;22.37;75.09
77161;BME280;66135;0.000;0.000;2023-09-18T23:08:08;100647.97;;;22.36;74.85
77161;BME280;66135;0.000;0.000;2023-09-18T23:10:36;100658.91;;;22.36;74.94
77161;BME280;66135;0.000;0.000;2023-09-18T23:13:02;100656.16;;;22.36;74.87
77161;BME280;66135;0.000;0.000;2023-09-18T23:15:29;100660.78;;;22.35;74.76
77161;BME280;66135;0.000;0.000;2023-09-18T23:17:55;100667.09;;;22.36;74.98
77161;BME280;66135;0.000;0.000;2023-09-18T23:20:21;100663.72;;;22.34;74.66
77161;BME280;66135;0.000;0.000;2023-09-18T23:22:52;100670.03;;;22.34;75.00
77161;BME280;66135;0.000;0.000;2023-09-18T23:25:20;100676.34;;;22.35;74.59
77161;BME280;66135;0.000;0.000;2023-09-18T23:27:46;100659.94;;;22.35;74.44
77161;BME280;66135;0.000;0.000;2023-09-18T23:30:14;100679.25;;;22.33;74.58
77161;BME280;66135;0.000;0.000;2023-09-18T23:32:42;100678.41;;;22.33;74.50
77161;BME280;66135;0.000;0.000;2023-09-18T23:35:09;100679.44;;;22.32;74.44
77161;BME280;66135;0.000;0.000;2023-09-18T23:37:39;100681.16;;;22.33;74.80
77161;BME280;66135;0.000;0.000;2023-09-18T23:40:06;100693.94;;;22.32;74.35
77161;BME280;66135;0.000;0.000;2023-09-18T23:42:35;100685.75;;;22.32;74.81
77161;BME280;66135;0.000;0.000;2023-09-18T23:45:02;100691.44;;;22.31;74.77
77161;BME280;66135;0.000;0.000;2023-09-18T23:47:39;100680.50;;;22.31;74.46
77161;BME280;66135;0.000;0.000;2023-09-18T23:50:05;100693.31;;;22.30;74.81
77161;BME280;66135;0.000;0.000;2023-09-18T23:52:33;100697.09;;;22.29;74.82
77161;BME280;66135;0.000;0.000;2023-09-18T23:54:59;100688.91;;;22.29;74.30
77161;BME280;66135;0.000;0.000;2023-09-18T23:57:25;100704.44;;;22.29;74.26
77161;BME280;66135;0.000;0.000;2023-09-18T23:59:51;100709.03;;;22.28;74.63
